Terminal Aerodrome Forecast
Issued by NWS Charleston, WV

Home | Current Version | Previous Version | Text Only | Print | Product List | Glossary On
Versions: 1 2 3 4 5 6 7 8 9 10 11 12 13 14 15 16 17 18 19 20 21 22 23 24 25
000
FTUS41 KRLX 311100
TAFEKN
TAF
KEKN 311120Z 3112/0112 00000KT 2SM BR BKN002
      TEMPO 3112/3113 4SM BR SCT002
     FM311300 24003KT 5SM BR SCT002 BKN035
     FM311400 23004KT 6SM BR HZ SCT005 BKN035
     FM311500 23005KT P6SM BKN035
     FM311700 26006KT P6SM SCT040
     FM312100 28005KT P6SM SCT100
     FM010000 00000KT P6SM BKN250
     FM010400 00000KT P6SM SCT050=

USA.gov is the U.S. government's official web portal to all federal, state and local government web resources and services.